createdAt,value
2023-04-17T00:06:45.152Z,9.00
2023-04-17T00:09:12.882Z,8.90
2023-04-17T00:11:40.105Z,8.90
2023-04-17T00:14:07.089Z,8.90
2023-04-17T00:16:34.214Z,8.80
2023-04-17T00:19:01.334Z,8.70
2023-04-17T00:21:30.033Z,8.70
2023-04-17T00:23:57.268Z,8.70
2023-04-17T00:26:24.836Z,8.60
2023-04-17T00:28:52.287Z,8.60
2023-04-17T00:31:19.662Z,8.50
2023-04-17T00:33:46.852Z,8.50
2023-04-17T00:36:15.513Z,8.40
2023-04-17T00:38:42.944Z,8.40
2023-04-17T00:41:11.588Z,8.40
2023-04-17T00:43:39.944Z,8.40
2023-04-17T00:46:08.462Z,8.40
2023-04-17T00:48:37.405Z,8.40
2023-04-17T00:51:04.806Z,8.40
2023-04-17T00:53:32.858Z,8.40
2023-04-17T00:56:04.372Z,8.40
2023-04-17T00:58:31.754Z,8.40
2023-04-17T01:00:59.594Z,8.30
2023-04-17T01:03:29.764Z,8.20
2023-04-17T01:05:58.260Z,8.20
2023-04-17T01:08:25.278Z,8.20
2023-04-17T01:10:52.433Z,8.20
2023-04-17T01:13:19.963Z,8.20
2023-04-17T01:15:47.431Z,8.20
2023-04-17T01:18:15.074Z,8.20
2023-04-17T01:20:42.179Z,8.20
2023-04-17T01:23:09.570Z,8.20
2023-04-17T01:25:36.631Z,8.20
2023-04-17T01:28:03.790Z,8.20
2023-04-17T01:30:31.171Z,8.20
2023-04-17T01:33:04.086Z,8.20
2023-04-17T01:35:31.143Z,8.10
2023-04-17T01:37:58.631Z,8.10
2023-04-17T01:40:25.742Z,8.20
2023-04-17T01:42:52.777Z,8.20
2023-04-17T01:45:20.198Z,8.10
2023-04-17T01:47:47.604Z,8.20
2023-04-17T01:50:14.790Z,8.20
2023-04-17T01:52:42.277Z,8.20
2023-04-17T01:55:09.715Z,8.20
2023-04-17T01:57:36.965Z,8.20
2023-04-17T02:00:09.413Z,8.10
2023-04-17T02:02:39.870Z,8.10
2023-04-17T02:09:38.647Z,8.00
2023-04-17T02:12:07.896Z,8.00
2023-04-17T02:14:35.114Z,8.00
2023-04-17T02:17:02.534Z,7.90
2023-04-17T02:23:56.680Z,7.90
2023-04-17T02:26:23.798Z,8.00
2023-04-17T02:28:50.804Z,8.10
2023-04-17T02:31:18.091Z,8.20
2023-04-17T02:33:46.399Z,8.30
2023-04-17T02:36:13.387Z,8.30
2023-04-17T02:38:42.859Z,8.30
2023-04-17T02:41:10.336Z,8.40
2023-04-17T02:43:38.624Z,8.40
2023-04-17T02:46:05.759Z,8.40
2023-04-17T02:48:32.957Z,8.40
2023-04-17T02:50:59.956Z,8.40
2023-04-17T02:53:27.521Z,8.40
2023-04-17T02:55:54.588Z,8.50
2023-04-17T02:58:23.906Z,8.40
2023-04-17T03:00:51.283Z,8.50
2023-04-17T03:03:20.027Z,8.50
2023-04-17T03:05:47.092Z,8.50
2023-04-17T03:08:14.089Z,8.50
2023-04-17T03:10:49.995Z,8.50
2023-04-17T03:13:17.096Z,8.50
2023-04-17T03:15:44.088Z,8.50
2023-04-17T03:18:11.402Z,8.50
2023-04-17T03:25:01.561Z,8.40
2023-04-17T03:27:36.198Z,8.40
2023-04-17T03:30:03.834Z,8.40
2023-04-17T03:32:32.246Z,8.40
2023-04-17T03:34:59.391Z,8.40
2023-04-17T03:37:27.483Z,8.40
2023-04-17T03:39:55.790Z,8.50
2023-04-17T03:42:27.446Z,8.50
2023-04-17T03:44:55.629Z,8.50
2023-04-17T03:47:24.250Z,8.50
2023-04-17T03:49:51.400Z,8.50
2023-04-17T03:52:19.098Z,8.60
2023-04-17T03:54:50.987Z,8.60
2023-04-17T03:57:18.119Z,8.50
2023-04-17T03:59:45.323Z,8.40
2023-04-17T04:02:12.765Z,8.40
2023-04-17T04:04:41.069Z,8.40
2023-04-17T04:07:12.439Z,8.30
2023-04-17T04:09:39.764Z,8.30
2023-04-17T04:12:08.709Z,8.30
2023-04-17T04:14:41.883Z,8.30
2023-04-17T04:17:10.141Z,8.30
2023-04-17T04:19:37.667Z,8.30
2023-04-17T04:22:06.711Z,8.30
2023-04-17T04:24:42.760Z,8.30
2023-04-17T04:27:12.218Z,8.30
2023-04-17T04:29:39.702Z,8.30
2023-04-17T04:32:09.905Z,8.30
2023-04-17T04:34:44.960Z,8.30
2023-04-17T04:37:15.719Z,8.30
2023-04-17T04:39:47.362Z,8.30
2023-04-17T04:42:22.242Z,8.40
2023-04-17T04:45:12.083Z,8.50
2023-04-17T04:47:39.344Z,8.60
2023-04-17T04:50:07.034Z,8.60
2023-04-17T04:52:34.174Z,8.60
2023-04-17T04:55:06.567Z,8.70
2023-04-17T04:57:36.436Z,8.70
2023-04-17T05:00:06.649Z,8.80
2023-04-17T05:02:41.562Z,8.80
2023-04-17T05:05:11.140Z,8.80
2023-04-17T05:07:38.374Z,8.80
2023-04-17T05:10:08.518Z,8.80
2023-04-17T05:12:39.073Z,8.80
2023-04-17T05:15:08.691Z,8.90
2023-04-17T05:17:36.555Z,8.90
2023-04-17T05:20:07.459Z,8.90
2023-04-17T05:22:39.224Z,8.90
2023-04-17T05:25:10.584Z,8.90
2023-04-17T05:27:37.872Z,9.00
2023-04-17T05:30:06.493Z,9.00
2023-04-17T05:32:35.180Z,9.00
2023-04-17T05:35:25.530Z,9.00
2023-04-17T05:37:55.905Z,9.10
2023-04-17T05:40:23.308Z,9.10
2023-04-17T05:42:50.446Z,9.10
2023-04-17T05:45:18.465Z,9.20
2023-04-17T05:47:46.014Z,9.20
2023-04-17T05:50:14.965Z,9.20
2023-04-17T05:52:42.323Z,9.20
2023-04-17T05:55:11.576Z,9.20
2023-04-17T05:57:39.378Z,9.20
2023-04-17T06:00:13.404Z,9.20
2023-04-17T06:02:50.104Z,9.20
2023-04-17T06:05:26.340Z,9.30
2023-04-17T06:07:53.627Z,9.30
2023-04-17T06:10:22.508Z,9.40
2023-04-17T06:12:50.228Z,9.50
2023-04-17T06:15:17.494Z,9.60
2023-04-17T06:17:44.711Z,9.70
2023-04-17T06:20:12.096Z,9.90
2023-04-17T06:22:40.368Z,10.00
2023-04-17T06:25:08.249Z,10.00
2023-04-17T06:27:37.205Z,10.00
2023-04-17T06:30:05.829Z,10.00
2023-04-17T06:32:43.775Z,10.00
2023-04-17T06:35:11.562Z,10.20
2023-04-17T06:37:44.441Z,10.30
2023-04-17T06:40:12.565Z,10.40
2023-04-17T06:42:40.644Z,10.50
2023-04-17T06:45:12.492Z,10.50
2023-04-17T06:47:39.679Z,10.50
2023-04-17T06:50:08.494Z,10.50
2023-04-17T06:52:35.559Z,10.60
2023-04-17T06:55:02.606Z,10.60
2023-04-17T06:57:29.696Z,10.60
2023-04-17T06:59:56.594Z,10.60
2023-04-17T07:02:23.772Z,10.60
2023-04-17T07:04:51.280Z,10.70
2023-04-17T07:11:44.987Z,10.60
2023-04-17T07:14:12.922Z,10.70
2023-04-17T07:16:40.383Z,10.70
2023-04-17T07:19:07.378Z,10.70
2023-04-17T07:21:34.910Z,10.70
2023-04-17T07:24:01.982Z,10.70
2023-04-17T07:26:29.046Z,10.60
2023-04-17T07:28:56.340Z,10.60
2023-04-17T07:31:23.721Z,10.60
2023-04-17T07:33:50.676Z,10.70
2023-04-17T07:36:17.816Z,10.60
2023-04-17T07:38:44.857Z,10.70
2023-04-17T07:41:12.660Z,10.80
2023-04-17T07:43:39.718Z,10.90
2023-04-17T07:46:06.821Z,10.90
2023-04-17T07:48:33.853Z,10.90
2023-04-17T07:51:03.616Z,11.00
2023-04-17T07:53:31.041Z,11.10
2023-04-17T07:55:58.613Z,11.10
2023-04-17T07:58:27.248Z,11.40
2023-04-17T08:00:54.492Z,11.50
2023-04-17T08:03:22.455Z,11.70
2023-04-17T08:05:51.863Z,11.90
2023-04-17T08:08:20.170Z,11.90
2023-04-17T08:10:47.144Z,11.80
2023-04-17T08:13:14.134Z,11.80
2023-04-17T08:15:41.373Z,11.70
2023-04-17T08:18:09.829Z,11.80
2023-04-17T08:20:37.209Z,11.70
2023-04-17T08:27:43.177Z,11.70
2023-04-17T08:30:14.218Z,11.70
2023-04-17T08:32:43.901Z,11.60
2023-04-17T08:35:12.150Z,11.60
2023-04-17T08:37:51.674Z,11.40
2023-04-17T08:40:36.728Z,11.50
2023-04-17T08:43:20.130Z,11.40
2023-04-17T08:45:54.175Z,11.50
2023-04-17T08:48:25.082Z,11.50
2023-04-17T08:50:53.672Z,11.40
2023-04-17T08:53:21.417Z,11.40
2023-04-17T08:55:48.822Z,11.40
2023-04-17T08:58:16.561Z,11.40
2023-04-17T09:00:44.957Z,11.40
2023-04-17T09:03:13.929Z,11.30
2023-04-17T09:05:45.860Z,11.30
2023-04-17T09:08:17.793Z,11.30
2023-04-17T09:10:49.713Z,11.20
2023-04-17T09:13:19.944Z,11.20
2023-04-17T09:16:08.488Z,11.20
2023-04-17T09:18:36.842Z,11.20
2023-04-17T09:21:05.355Z,11.20
2023-04-17T09:23:49.872Z,11.30
2023-04-17T09:26:27.646Z,11.20
2023-04-17T09:29:11.246Z,11.20
2023-04-17T09:31:40.309Z,11.20
2023-04-17T09:34:09.302Z,11.20
2023-04-17T09:41:02.998Z,11.40
2023-04-17T09:43:43.404Z,11.30
2023-04-17T09:46:10.736Z,11.40
2023-04-17T09:48:37.810Z,11.40
2023-04-17T09:51:05.022Z,11.40
2023-04-17T09:57:56.561Z,11.60
2023-04-17T10:00:27.244Z,11.70
2023-04-17T10:02:56.305Z,11.60
2023-04-17T10:05:29.204Z,11.50
2023-04-17T10:07:56.844Z,11.60
2023-04-17T10:10:33.877Z,11.60
2023-04-17T10:13:05.538Z,11.70
2023-04-17T10:15:33.936Z,11.70
2023-04-17T10:18:21.489Z,11.70
2023-04-17T10:20:49.624Z,11.70
2023-04-17T10:23:35.197Z,11.80
2023-04-17T10:26:30.019Z,11.90
2023-04-17T10:28:57.978Z,12.10
2023-04-17T10:32:03.526Z,12.10
2023-04-17T10:34:37.871Z,12.30
2023-04-17T10:41:27.378Z,12.60
2023-04-17T10:43:57.717Z,12.50
2023-04-17T10:46:26.591Z,12.50
2023-04-17T10:48:53.980Z,12.50
2023-04-17T10:51:27.851Z,12.60
2023-04-17T10:54:05.624Z,12.70
2023-04-17T10:56:46.433Z,12.60
2023-04-17T10:59:14.820Z,12.60
2023-04-17T11:01:48.156Z,12.80
2023-04-17T11:04:25.469Z,12.70
2023-04-17T11:06:54.166Z,12.70
2023-04-17T11:09:23.181Z,12.70
2023-04-17T11:11:50.487Z,12.60
2023-04-17T11:14:19.713Z,12.50
2023-04-17T11:16:48.626Z,12.50
2023-04-17T11:19:23.326Z,12.40
2023-04-17T11:21:57.424Z,12.30
2023-04-17T11:24:26.851Z,12.20
2023-04-17T11:26:54.535Z,12.20
2023-04-17T11:29:22.833Z,12.10
2023-04-17T11:31:52.229Z,12.00
2023-04-17T11:34:19.838Z,12.10
2023-04-17T11:36:57.742Z,12.10
2023-04-17T11:39:33.367Z,12.10
2023-04-17T11:42:02.666Z,12.10
2023-04-17T11:44:29.979Z,12.00
2023-04-17T11:47:00.722Z,11.90
2023-04-17T11:49:29.752Z,11.90
2023-04-17T11:51:59.954Z,11.90
2023-04-17T11:54:39.912Z,11.90
2023-04-17T11:57:12.622Z,11.90
2023-04-17T11:59:45.663Z,11.90
2023-04-17T12:02:12.959Z,12.00
2023-04-17T12:04:40.615Z,11.90
2023-04-17T12:07:08.664Z,12.00
2023-04-17T12:09:36.506Z,12.00
2023-04-17T12:12:07.597Z,12.00
2023-04-17T12:14:35.271Z,12.00
2023-04-17T12:17:02.162Z,11.90
2023-04-17T12:19:29.934Z,11.90
2023-04-17T12:21:57.516Z,12.00
2023-04-17T12:24:25.359Z,12.00
2023-04-17T12:26:53.555Z,12.00
2023-04-17T12:29:29.508Z,11.90
2023-04-17T12:32:08.029Z,11.80
2023-04-17T12:34:35.067Z,11.70
2023-04-17T12:37:02.077Z,11.60
2023-04-17T12:39:29.061Z,11.60
2023-04-17T12:41:56.424Z,11.50
2023-04-17T12:44:23.647Z,11.40
2023-04-17T12:46:50.738Z,11.50
2023-04-17T12:49:17.911Z,11.40
2023-04-17T12:51:45.149Z,11.40
2023-04-17T12:54:12.327Z,11.30
2023-04-17T12:56:39.523Z,11.40
2023-04-17T12:59:06.664Z,11.40
2023-04-17T13:01:33.821Z,11.40
2023-04-17T13:04:01.233Z,11.50
2023-04-17T13:06:28.515Z,11.40
2023-04-17T13:08:55.618Z,11.40
2023-04-17T13:11:22.719Z,11.40
2023-04-17T13:13:49.692Z,11.40
2023-04-17T13:16:16.821Z,11.40
2023-04-17T13:18:43.798Z,11.40
2023-04-17T13:21:10.756Z,11.40
2023-04-17T13:23:37.728Z,11.40
2023-04-17T13:26:05.002Z,11.40
2023-04-17T13:28:32.141Z,11.40
2023-04-17T13:30:59.279Z,11.40
2023-04-17T13:33:26.290Z,11.40
2023-04-17T13:35:54.047Z,11.30
2023-04-17T13:38:21.050Z,11.30
2023-04-17T13:45:24.328Z,11.30
2023-04-17T13:47:51.698Z,11.40
2023-04-17T13:50:18.802Z,11.40
2023-04-17T13:52:45.792Z,11.40
2023-04-17T13:55:14.775Z,11.50
2023-04-17T13:57:41.793Z,11.50
2023-04-17T14:00:10.765Z,11.50
2023-04-17T14:02:37.976Z,11.50
2023-04-17T14:05:05.974Z,11.60
2023-04-17T14:07:33.094Z,11.50
2023-04-17T14:10:00.328Z,11.40
2023-04-17T14:12:27.442Z,11.40
2023-04-17T14:14:55.173Z,11.40
2023-04-17T14:17:23.632Z,11.40
2023-04-17T14:19:50.640Z,11.40
2023-04-17T14:22:17.727Z,11.30
2023-04-17T14:24:44.651Z,11.30
2023-04-17T14:27:11.805Z,11.30
2023-04-17T14:29:38.969Z,11.20
2023-04-17T14:32:06.314Z,11.20
2023-04-17T14:34:33.387Z,11.30
2023-04-17T14:37:00.793Z,11.20
2023-04-17T14:39:30.143Z,11.20
2023-04-17T14:42:00.525Z,11.20
2023-04-17T14:44:29.204Z,11.20
2023-04-17T14:46:57.038Z,11.20
2023-04-17T14:49:24.351Z,11.20
2023-04-17T14:51:51.813Z,11.10
2023-04-17T14:54:19.581Z,11.20
2023-04-17T14:56:52.476Z,11.20
2023-04-17T14:59:20.792Z,11.20
2023-04-17T15:01:48.027Z,11.00
2023-04-17T15:04:15.655Z,11.00
2023-04-17T15:06:44.899Z,10.90
2023-04-17T15:13:41.951Z,10.80
2023-04-17T15:16:10.937Z,10.70
2023-04-17T15:18:42.777Z,10.60
2023-04-17T15:21:11.190Z,10.60
2023-04-17T15:23:41.497Z,10.60
2023-04-17T15:30:37.952Z,10.60
2023-04-17T15:33:09.242Z,10.60
2023-04-17T15:35:37.518Z,10.60
2023-04-17T15:38:08.131Z,10.60
2023-04-17T15:45:01.912Z,10.60
2023-04-17T15:47:28.977Z,10.50
2023-04-17T15:49:56.364Z,10.50
2023-04-17T15:52:26.372Z,10.50
2023-04-17T15:54:54.313Z,10.50
2023-04-17T15:57:26.808Z,10.50
2023-04-17T15:59:54.936Z,10.50
2023-04-17T16:02:22.088Z,10.50
2023-04-17T16:04:49.449Z,10.50
2023-04-17T16:07:16.653Z,10.50
2023-04-17T16:14:12.971Z,10.60
2023-04-17T16:16:41.145Z,10.60
2023-04-17T16:19:08.911Z,10.60
2023-04-17T16:21:40.557Z,10.50
2023-04-17T16:24:11.755Z,10.50
2023-04-17T16:31:07.302Z,10.50
2023-04-17T16:33:34.454Z,10.50
2023-04-17T16:36:02.159Z,10.60
2023-04-17T16:38:29.552Z,10.50
2023-04-17T16:40:59.250Z,10.60
2023-04-17T16:43:26.954Z,10.60
2023-04-17T16:45:54.022Z,10.60
2023-04-17T16:48:21.173Z,10.60
2023-04-17T16:50:48.462Z,10.50
2023-04-17T16:53:15.440Z,10.50
2023-04-17T16:55:42.600Z,10.50
2023-04-17T16:58:10.206Z,10.50
2023-04-17T17:00:38.015Z,10.50
2023-04-17T17:03:05.561Z,10.40
2023-04-17T17:05:32.837Z,10.40
2023-04-17T17:08:00.527Z,10.40
2023-04-17T17:10:27.975Z,10.40
2023-04-17T17:12:59.049Z,10.40
2023-04-17T17:15:27.539Z,10.30
2023-04-17T17:17:54.634Z,10.30
2023-04-17T17:20:22.012Z,10.30
2023-04-17T17:22:49.905Z,10.30
2023-04-17T17:25:18.537Z,10.30
2023-04-17T17:32:18.339Z,10.30
2023-04-17T17:34:46.245Z,10.30
2023-04-17T17:37:13.493Z,10.30
2023-04-17T17:39:40.591Z,10.30
2023-04-17T17:42:10.664Z,10.20
2023-04-17T17:44:41.808Z,10.20
2023-04-17T17:47:14.556Z,10.20
2023-04-17T17:49:43.118Z,10.20
2023-04-17T17:52:14.164Z,10.20
2023-04-17T17:54:43.234Z,10.20
2023-04-17T17:57:10.610Z,10.10
2023-04-17T17:59:43.456Z,10.10
2023-04-17T18:02:15.005Z,10.10
2023-04-17T18:04:43.493Z,10.10
2023-04-17T18:07:10.664Z,10.10
2023-04-17T18:09:41.480Z,10.10
2023-04-17T18:12:09.785Z,10.10
2023-04-17T18:14:40.535Z,10.00
2023-04-17T18:17:12.989Z,10.00
2023-04-17T18:19:42.203Z,10.00
2023-04-17T18:22:10.120Z,10.00
2023-04-17T18:24:37.213Z,10.00
2023-04-17T18:27:05.595Z,10.00
2023-04-17T18:29:40.383Z,10.00
2023-04-17T18:32:13.608Z,9.90
2023-04-17T18:34:46.751Z,10.00
2023-04-17T18:37:18.344Z,10.00
2023-04-17T18:39:48.735Z,9.90
2023-04-17T18:42:17.535Z,9.90
2023-04-17T18:44:44.904Z,9.90
2023-04-17T18:47:12.048Z,9.90
2023-04-17T18:49:45.141Z,9.90
2023-04-17T18:52:18.899Z,9.90
2023-04-17T18:54:53.851Z,9.90
2023-04-17T18:57:21.751Z,9.90
2023-04-17T18:59:48.737Z,9.90
2023-04-17T19:02:15.810Z,9.90
2023-04-17T19:04:43.045Z,9.90
2023-04-17T19:07:10.088Z,9.90
2023-04-17T19:09:37.179Z,9.90
2023-04-17T19:12:04.429Z,9.90
2023-04-17T19:14:32.693Z,9.90
2023-04-17T19:16:59.895Z,9.90
2023-04-17T19:19:27.040Z,9.80
2023-04-17T19:21:54.080Z,9.80
2023-04-17T19:24:21.410Z,9.80
2023-04-17T19:26:48.825Z,9.80
2023-04-17T19:29:20.250Z,9.80
2023-04-17T19:31:48.766Z,9.80
2023-04-17T19:34:16.629Z,9.80
2023-04-17T19:36:44.694Z,9.80
2023-04-17T19:39:13.560Z,9.80
2023-04-17T19:41:44.077Z,9.70
2023-04-17T19:44:14.744Z,9.70
2023-04-17T19:46:45.785Z,9.70
2023-04-17T19:49:18.921Z,9.70
2023-04-17T19:51:51.659Z,9.70
2023-04-17T19:54:20.323Z,9.70
2023-04-17T19:56:53.398Z,9.70
2023-04-17T19:59:24.924Z,9.70
2023-04-17T20:01:56.480Z,9.70
2023-04-17T20:04:29.116Z,9.70
2023-04-17T20:07:00.647Z,9.70
2023-04-17T20:09:28.815Z,9.70
2023-04-17T20:11:56.116Z,9.70
2023-04-17T20:14:27.196Z,9.70
2023-04-17T20:17:02.724Z,9.60
2023-04-17T20:19:32.568Z,9.60
2023-04-17T20:21:59.781Z,9.60
2023-04-17T20:24:28.797Z,9.60
2023-04-17T20:27:02.183Z,9.60
2023-04-17T20:31:27.592Z,9.60
2023-04-17T20:33:55.894Z,9.60
2023-04-17T20:36:23.133Z,9.60
2023-04-17T20:38:54.995Z,9.60
2023-04-17T20:41:23.596Z,9.60
2023-04-17T20:48:35.662Z,9.60
2023-04-17T20:51:11.057Z,9.50
2023-04-17T20:53:42.964Z,9.50
2023-04-17T20:56:10.351Z,9.50
2023-04-17T21:03:09.539Z,9.50
2023-04-17T21:05:37.914Z,9.50
2023-04-17T21:08:05.029Z,9.50
2023-04-17T21:10:32.029Z,9.50
2023-04-17T21:17:39.754Z,9.50
2023-04-17T21:20:07.748Z,9.50
2023-04-17T21:22:36.992Z,9.50
2023-04-17T21:25:04.541Z,9.50
2023-04-17T21:27:31.747Z,9.50
2023-04-17T21:29:58.787Z,9.60
2023-04-17T21:32:25.820Z,9.60
2023-04-17T21:34:53.117Z,9.60
2023-04-17T21:37:20.304Z,9.60
2023-04-17T21:39:48.472Z,9.60
2023-04-17T21:42:16.975Z,9.60
2023-04-17T21:44:44.215Z,9.60
2023-04-17T21:47:11.618Z,9.60
2023-04-17T21:49:38.680Z,9.60
2023-04-17T21:52:05.805Z,9.60
2023-04-17T21:54:33.783Z,9.60
2023-04-17T21:57:02.244Z,9.60
2023-04-17T21:59:29.884Z,9.60
2023-04-17T22:01:57.132Z,9.60
2023-04-17T22:04:24.257Z,9.60
2023-04-17T22:06:52.251Z,9.60
2023-04-17T22:09:20.127Z,9.60
2023-04-17T22:11:49.452Z,9.60
2023-04-17T22:14:17.326Z,9.60
2023-04-17T22:16:44.746Z,9.50
2023-04-17T22:19:11.837Z,9.60
2023-04-17T22:21:38.830Z,9.60
2023-04-17T22:24:06.222Z,9.60
2023-04-17T22:26:33.267Z,9.60
2023-04-17T22:29:00.389Z,9.60
2023-04-17T22:31:27.687Z,9.60
2023-04-17T22:33:54.907Z,9.60
2023-04-17T22:36:22.053Z,9.60
2023-04-17T22:38:49.200Z,9.60
2023-04-17T22:45:16.207Z,9.60
2023-04-17T22:47:43.398Z,9.60
2023-04-17T22:50:10.938Z,9.60
2023-04-17T22:52:38.034Z,9.60
2023-04-17T22:55:06.452Z,9.60
2023-04-17T22:57:33.806Z,9.60
2023-04-17T23:00:00.791Z,9.60
2023-04-17T23:02:27.923Z,9.50
2023-04-17T23:04:55.160Z,9.60
2023-04-17T23:07:22.492Z,9.60
2023-04-17T23:10:17.982Z,9.60
2023-04-17T23:13:05.044Z,9.50
2023-04-17T23:15:33.778Z,9.60
2023-04-17T23:18:00.930Z,9.60
2023-04-17T23:20:28.552Z,9.60
2023-04-17T23:22:55.582Z,9.60
2023-04-17T23:25:22.739Z,9.60
2023-04-17T23:27:49.844Z,9.60
2023-04-17T23:30:17.008Z,9.60
2023-04-17T23:32:44.070Z,9.60
2023-04-17T23:35:11.191Z,9.70
2023-04-17T23:37:38.300Z,9.60
2023-04-17T23:40:07.695Z,9.70
2023-04-17T23:42:34.930Z,9.70
2023-04-17T23:45:02.047Z,9.60
2023-04-17T23:47:29.108Z,9.70
2023-04-17T23:49:56.244Z,9.70
2023-04-17T23:52:23.292Z,9.70
2023-04-17T23:54:50.588Z,9.70
2023-04-17T23:57:17.993Z,9.70
2023-04-17T23:59:45.252Z,9.70
